sensor_id;sensor_type;location;lat;lon;timestamp;pressure;altitude;pressure_sealevel;temperature;humidity
63097;BME280;49185;42.320;23.198;2023-08-06T00:01:48;93734.47;;;17.00;100.00
63097;BME280;49185;42.320;23.198;2023-08-06T00:04:13;93716.16;;;17.02;100.00
63097;BME280;49185;42.320;23.198;2023-08-06T00:06:39;93707.28;;;16.93;100.00
63097;BME280;49185;42.320;23.198;2023-08-06T00:09:05;93713.75;;;16.92;100.00
63097;BME280;49185;42.320;23.198;2023-08-06T00:11:31;93705.38;;;16.94;100.00
63097;BME280;49185;42.320;23.198;2023-08-06T00:13:57;93712.19;;;16.91;100.00
63097;BME280;49185;42.320;23.198;2023-08-06T00:16:22;93703.00;;;16.92;100.00
63097;BME280;49185;42.320;23.198;2023-08-06T00:18:48;93699.41;;;17.05;100.00
63097;BME280;49185;42.320;23.198;2023-08-06T00:21:13;93692.75;;;17.12;100.00
63097;BME280;49185;42.320;23.198;2023-08-06T00:23:39;93685.97;;;17.14;100.00
63097;BME280;49185;42.320;23.198;2023-08-06T00:26:05;93690.22;;;17.15;100.00
63097;BME280;49185;42.320;23.198;2023-08-06T00:28:31;93695.13;;;17.13;100.00
63097;BME280;49185;42.320;23.198;2023-08-06T00:30:57;93705.28;;;17.25;100.00
63097;BME280;49185;42.320;23.198;2023-08-06T00:33:23;93703.81;;;17.19;100.00
63097;BME280;49185;42.320;23.198;2023-08-06T00:35:48;93702.09;;;17.14;100.00
63097;BME280;49185;42.320;23.198;2023-08-06T00:38:14;93701.78;;;17.16;100.00
63097;BME280;49185;42.320;23.198;2023-08-06T00:40:39;93695.59;;;17.15;100.00
63097;BME280;49185;42.320;23.198;2023-08-06T00:43:05;93689.75;;;17.22;100.00
63097;BME280;49185;42.320;23.198;2023-08-06T00:45:35;93685.66;;;17.24;100.00
63097;BME280;49185;42.320;23.198;2023-08-06T00:48:01;93678.53;;;17.20;100.00
63097;BME280;49185;42.320;23.198;2023-08-06T00:50:28;93675.22;;;17.23;100.00
63097;BME280;49185;42.320;23.198;2023-08-06T00:52:54;93672.38;;;17.19;100.00
63097;BME280;49185;42.320;23.198;2023-08-06T00:55:20;93676.31;;;17.22;100.00
63097;BME280;49185;42.320;23.198;2023-08-06T00:57:45;93667.00;;;17.19;100.00
63097;BME280;49185;42.320;23.198;2023-08-06T01:00:12;93667.63;;;17.16;100.00
63097;BME280;49185;42.320;23.198;2023-08-06T01:02:37;93665.09;;;17.11;100.00
63097;BME280;49185;42.320;23.198;2023-08-06T01:05:03;93667.31;;;17.09;100.00
63097;BME280;49185;42.320;23.198;2023-08-06T01:07:37;93667.78;;;17.02;100.00
63097;BME280;49185;42.320;23.198;2023-08-06T01:13:18;93669.38;;;17.03;100.00
63097;BME280;49185;42.320;23.198;2023-08-06T01:15:50;93665.72;;;17.08;100.00
63097;BME280;49185;42.320;23.198;2023-08-06T01:18:16;93676.00;;;17.15;100.00
63097;BME280;49185;42.320;23.198;2023-08-06T01:20:41;93672.03;;;17.12;100.00
63097;BME280;49185;42.320;23.198;2023-08-06T01:23:07;93666.66;;;17.12;100.00
63097;BME280;49185;42.320;23.198;2023-08-06T01:25:35;93665.72;;;17.17;100.00
63097;BME280;49185;42.320;23.198;2023-08-06T01:28:13;93654.03;;;17.21;100.00
63097;BME280;49185;42.320;23.198;2023-08-06T01:30:41;93664.94;;;17.25;100.00
63097;BME280;49185;42.320;23.198;2023-08-06T01:33:10;93659.09;;;17.14;100.00
63097;BME280;49185;42.320;23.198;2023-08-06T01:35:39;93667.31;;;17.09;100.00
63097;BME280;49185;42.320;23.198;2023-08-06T01:38:04;93677.41;;;17.12;100.00
63097;BME280;49185;42.320;23.198;2023-08-06T01:40:30;93687.84;;;17.14;100.00
63097;BME280;49185;42.320;23.198;2023-08-06T01:42:55;93677.41;;;17.12;100.00
63097;BME280;49185;42.320;23.198;2023-08-06T01:45:21;93656.88;;;17.07;100.00
63097;BME280;49185;42.320;23.198;2023-08-06T01:47:46;93652.44;;;17.03;100.00
63097;BME280;49185;42.320;23.198;2023-08-06T01:50:11;93647.38;;;17.01;100.00
63097;BME280;49185;42.320;23.198;2023-08-06T01:52:37;93662.25;;;16.99;100.00
63097;BME280;49185;42.320;23.198;2023-08-06T01:55:02;93671.41;;;16.98;100.00
63097;BME280;49185;42.320;23.198;2023-08-06T01:57:28;93670.47;;;16.94;100.00
63097;BME280;49185;42.320;23.198;2023-08-06T01:59:53;93665.56;;;16.96;100.00
63097;BME280;49185;42.320;23.198;2023-08-06T02:02:19;93662.25;;;16.99;100.00
63097;BME280;49185;42.320;23.198;2023-08-06T02:04:45;93670.47;;;17.02;100.00
63097;BME280;49185;42.320;23.198;2023-08-06T02:07:10;93668.09;;;17.10;100.00
63097;BME280;49185;42.320;23.198;2023-08-06T02:09:35;93663.81;;;17.08;100.00
63097;BME280;49185;42.320;23.198;2023-08-06T02:12:01;93645.81;;;16.92;100.00
63097;BME280;49185;42.320;23.198;2023-08-06T02:14:27;93646.56;;;16.83;100.00
63097;BME280;49185;42.320;23.198;2023-08-06T02:16:52;93657.94;;;16.80;100.00
63097;BME280;49185;42.320;23.198;2023-08-06T02:19:17;93674.88;;;16.89;100.00
63097;BME280;49185;42.320;23.198;2023-08-06T02:21:43;93700.00;;;16.94;100.00
63097;BME280;49185;42.320;23.198;2023-08-06T02:24:08;93712.00;;;16.96;100.00
63097;BME280;49185;42.320;23.198;2023-08-06T02:26:33;93689.44;;;16.97;100.00
63097;BME280;49185;42.320;23.198;2023-08-06T02:28:59;93673.44;;;16.92;100.00
63097;BME280;49185;42.320;23.198;2023-08-06T02:31:24;93684.66;;;16.85;100.00
63097;BME280;49185;42.320;23.198;2023-08-06T02:33:50;93663.94;;;16.77;100.00
63097;BME280;49185;42.320;23.198;2023-08-06T02:36:15;93680.97;;;16.73;100.00
63097;BME280;49185;42.320;23.198;2023-08-06T02:38:41;93679.41;;;16.72;100.00
63097;BME280;49185;42.320;23.198;2023-08-06T02:41:06;93677.94;;;16.65;100.00
63097;BME280;49185;42.320;23.198;2023-08-06T02:43:31;93687.13;;;16.64;100.00
63097;BME280;49185;42.320;23.198;2023-08-06T02:45:58;93677.34;;;16.68;100.00
63097;BME280;49185;42.320;23.198;2023-08-06T02:48:24;93671.31;;;16.63;100.00
63097;BME280;49185;42.320;23.198;2023-08-06T02:50:49;93677.81;;;16.70;100.00
63097;BME280;49185;42.320;23.198;2023-08-06T02:53:15;93681.28;;;16.71;100.00
63097;BME280;49185;42.320;23.198;2023-08-06T02:55:47;93672.59;;;16.65;100.00
63097;BME280;49185;42.320;23.198;2023-08-06T02:58:16;93685.88;;;16.70;100.00
63097;BME280;49185;42.320;23.198;2023-08-06T03:00:42;93704.38;;;16.81;100.00
63097;BME280;49185;42.320;23.198;2023-08-06T03:03:08;93713.13;;;16.86;100.00
63097;BME280;49185;42.320;23.198;2023-08-06T03:05:33;93711.22;;;16.87;100.00
63097;BME280;49185;42.320;23.198;2023-08-06T03:07:58;93712.97;;;16.92;100.00
63097;BME280;49185;42.320;23.198;2023-08-06T03:10:24;93723.25;;;16.89;100.00
63097;BME280;49185;42.320;23.198;2023-08-06T03:12:49;93733.00;;;16.85;100.00
63097;BME280;49185;42.320;23.198;2023-08-06T03:15:15;93724.94;;;16.85;100.00
63097;BME280;49185;42.320;23.198;2023-08-06T03:17:40;93728.94;;;16.88;100.00
63097;BME280;49185;42.320;23.198;2023-08-06T03:20:06;93735.38;;;16.87;100.00
63097;BME280;49185;42.320;23.198;2023-08-06T03:22:31;93738.72;;;16.84;100.00
63097;BME280;49185;42.320;23.198;2023-08-06T03:24:57;93732.16;;;16.76;100.00
63097;BME280;49185;42.320;23.198;2023-08-06T03:27:22;93732.66;;;16.78;100.00
63097;BME280;49185;42.320;23.198;2023-08-06T03:29:51;93729.16;;;16.69;100.00
63097;BME280;49185;42.320;23.198;2023-08-06T07:04:03;93781.06;;;24.38;79.71
63097;BME280;49185;42.320;23.198;2023-08-06T07:06:28;93777.75;;;23.70;82.69
63097;BME280;49185;42.320;23.198;2023-08-06T07:08:53;93787.63;;;22.95;85.00
63097;BME280;49185;42.320;23.198;2023-08-06T07:11:19;93794.63;;;22.96;87.79
63097;BME280;49185;42.320;23.198;2023-08-06T07:13:44;93791.38;;;23.38;85.34
63097;BME280;49185;42.320;23.198;2023-08-06T07:16:10;93790.22;;;24.49;81.74
63097;BME280;49185;42.320;23.198;2023-08-06T07:18:35;93799.53;;;24.68;76.23
63097;BME280;49185;42.320;23.198;2023-08-06T07:21:04;93805.31;;;24.47;75.78
63097;BME280;49185;42.320;23.198;2023-08-06T07:23:29;93796.53;;;24.34;78.23
63097;BME280;49185;42.320;23.198;2023-08-06T07:25:54;93803.84;;;25.15;76.31
63097;BME280;49185;42.320;23.198;2023-08-06T07:28:20;93805.84;;;25.18;74.97
63097;BME280;49185;42.320;23.198;2023-08-06T07:30:46;93789.94;;;24.74;78.12
63097;BME280;49185;42.320;23.198;2023-08-06T07:33:12;93798.47;;;25.42;73.84
63097;BME280;49185;42.320;23.198;2023-08-06T07:54:44;93809.59;;;26.13;65.73
63097;BME280;49185;42.320;23.198;2023-08-06T07:57:30;93813.03;;;27.12;61.88
63097;BME280;49185;42.320;23.198;2023-08-06T08:00:15;93805.22;;;27.14;61.07
63097;BME280;49185;42.320;23.198;2023-08-06T08:03:01;93814.25;;;26.12;64.68
63097;BME280;49185;42.320;23.198;2023-08-06T08:05:47;93815.56;;;26.90;68.00
63097;BME280;49185;42.320;23.198;2023-08-06T08:08:33;93807.19;;;27.61;61.71
63097;BME280;49185;42.320;23.198;2023-08-06T08:11:20;93803.59;;;27.05;59.88
63097;BME280;49185;42.320;23.198;2023-08-06T08:14:06;93798.63;;;27.63;57.57
63097;BME280;49185;42.320;23.198;2023-08-06T08:16:52;93802.59;;;27.76;56.34
63097;BME280;49185;42.320;23.198;2023-08-06T08:19:37;93799.22;;;26.94;58.92
63097;BME280;49185;42.320;23.198;2023-08-06T08:22:23;93808.72;;;26.05;60.39
63097;BME280;49185;42.320;23.198;2023-08-06T08:25:09;93808.25;;;27.46;57.30
63097;BME280;49185;42.320;23.198;2023-08-06T08:27:55;93803.91;;;27.38;59.91
63097;BME280;49185;42.320;23.198;2023-08-06T08:30:41;93796.88;;;26.96;56.44
63097;BME280;49185;42.320;23.198;2023-08-06T08:33:26;93797.09;;;26.76;57.77
63097;BME280;49185;42.320;23.198;2023-08-06T08:36:12;93802.09;;;25.03;63.52
63097;BME280;49185;42.320;23.198;2023-08-06T08:38:58;93799.69;;;24.55;63.84
63097;BME280;49185;42.320;23.198;2023-08-06T08:41:44;93798.91;;;24.16;64.70
63097;BME280;49185;42.320;23.198;2023-08-06T08:44:10;93789.25;;;23.47;67.82
63097;BME280;49185;42.320;23.198;2023-08-06T08:46:54;93793.31;;;22.90;67.13
63097;BME280;49185;42.320;23.198;2023-08-06T08:49:41;93783.28;;;23.22;69.77
63097;BME280;49185;42.320;23.198;2023-08-06T08:52:10;93790.81;;;24.58;63.55
63097;BME280;49185;42.320;23.198;2023-08-06T08:54:37;93786.53;;;25.50;62.26
63097;BME280;49185;42.320;23.198;2023-08-06T08:57:04;93777.03;;;25.67;61.23
63097;BME280;49185;42.320;23.198;2023-08-06T08:59:29;93771.53;;;26.24;57.12
63097;BME280;49185;42.320;23.198;2023-08-06T09:01:55;93771.25;;;25.99;56.65
63097;BME280;49185;42.320;23.198;2023-08-06T09:04:22;93770.88;;;26.68;59.93
63097;BME280;49185;42.320;23.198;2023-08-06T09:06:50;93774.56;;;25.58;59.19
63097;BME280;49185;42.320;23.198;2023-08-06T09:09:29;93767.97;;;25.09;61.67
63097;BME280;49185;42.320;23.198;2023-08-06T09:12:00;93771.72;;;25.77;59.94
63097;BME280;49185;42.320;23.198;2023-08-06T09:14:26;93763.97;;;26.40;58.33
63097;BME280;49185;42.320;23.198;2023-08-06T09:16:52;93764.72;;;25.76;64.26
63097;BME280;49185;42.320;23.198;2023-08-06T09:19:17;93766.06;;;25.63;58.59
63097;BME280;49185;42.320;23.198;2023-08-06T09:21:43;93763.38;;;25.36;59.47
63097;BME280;49185;42.320;23.198;2023-08-06T09:24:12;93767.66;;;25.64;62.21
63097;BME280;49185;42.320;23.198;2023-08-06T09:26:43;93769.63;;;25.67;62.62
63097;BME280;49185;42.320;23.198;2023-08-06T09:29:11;93771.78;;;25.28;65.86
63097;BME280;49185;42.320;23.198;2023-08-06T09:31:41;93769.06;;;25.54;63.79
63097;BME280;49185;42.320;23.198;2023-08-06T09:34:11;93773.78;;;25.57;59.91
63097;BME280;49185;42.320;23.198;2023-08-06T09:36:40;93773.47;;;25.36;63.12
63097;BME280;49185;42.320;23.198;2023-08-06T09:39:13;93776.94;;;25.90;63.25
63097;BME280;49185;42.320;23.198;2023-08-06T09:41:38;93768.53;;;25.99;61.80
63097;BME280;49185;42.320;23.198;2023-08-06T09:44:04;93759.09;;;26.60;60.22
63097;BME280;49185;42.320;23.198;2023-08-06T09:46:32;93754.91;;;26.70;58.34
63097;BME280;49185;42.320;23.198;2023-08-06T09:48:57;93757.22;;;26.30;60.75
63097;BME280;49185;42.320;23.198;2023-08-06T09:51:22;93753.75;;;26.00;58.06
63097;BME280;49185;42.320;23.198;2023-08-06T09:53:48;93754.56;;;26.75;60.92
63097;BME280;49185;42.320;23.198;2023-08-06T09:56:15;93747.84;;;27.62;55.73
63097;BME280;49185;42.320;23.198;2023-08-06T09:58:42;93752.91;;;28.37;52.06
63097;BME280;49185;42.320;23.198;2023-08-06T10:01:11;93760.50;;;29.08;48.76
63097;BME280;49185;42.320;23.198;2023-08-06T10:03:39;93767.19;;;29.22;52.54
63097;BME280;49185;42.320;23.198;2023-08-06T10:06:05;93771.00;;;30.03;45.68
63097;BME280;49185;42.320;23.198;2023-08-06T10:08:31;93775.72;;;28.98;49.13
63097;BME280;49185;42.320;23.198;2023-08-06T10:10:57;93771.84;;;29.07;47.22
63097;BME280;49185;42.320;23.198;2023-08-06T10:13:24;93773.44;;;29.26;50.70
63097;BME280;49185;42.320;23.198;2023-08-06T10:15:50;93771.41;;;28.62;47.20
63097;BME280;49185;42.320;23.198;2023-08-06T10:18:17;93779.56;;;25.83;50.49
63097;BME280;49185;42.320;23.198;2023-08-06T10:20:44;93772.75;;;24.93;54.32
63097;BME280;49185;42.320;23.198;2023-08-06T10:23:09;93766.53;;;24.50;57.44
63097;BME280;49185;42.320;23.198;2023-08-06T10:25:40;93766.53;;;22.72;62.60
63097;BME280;49185;42.320;23.198;2023-08-06T10:28:35;93782.56;;;22.33;66.10
63097;BME280;49185;42.320;23.198;2023-08-06T10:31:01;93770.63;;;22.66;66.85
63097;BME280;49185;42.320;23.198;2023-08-06T10:33:40;93770.28;;;22.68;66.09
63097;BME280;49185;42.320;23.198;2023-08-06T10:36:08;93772.66;;;23.33;65.62
63097;BME280;49185;42.320;23.198;2023-08-06T10:38:34;93771.69;;;23.41;63.66
63097;BME280;49185;42.320;23.198;2023-08-06T10:43:45;93785.16;;;22.58;69.69
63097;BME280;49185;42.320;23.198;2023-08-06T10:46:22;93778.81;;;22.10;70.74
63097;BME280;49185;42.320;23.198;2023-08-06T10:48:48;93777.44;;;22.16;73.70
63097;BME280;49185;42.320;23.198;2023-08-06T10:51:14;93785.72;;;22.35;73.71
63097;BME280;49185;42.320;23.198;2023-08-06T10:53:49;93780.25;;;22.48;73.65
63097;BME280;49185;42.320;23.198;2023-08-06T10:56:17;93780.56;;;22.18;71.84
63097;BME280;49185;42.320;23.198;2023-08-06T10:58:43;93784.78;;;21.75;75.17
63097;BME280;49185;42.320;23.198;2023-08-06T11:01:10;93792.06;;;21.46;77.97
63097;BME280;49185;42.320;23.198;2023-08-06T11:03:37;93793.59;;;21.59;78.24
63097;BME280;49185;42.320;23.198;2023-08-06T11:06:03;93798.91;;;21.56;80.65
63097;BME280;49185;42.320;23.198;2023-08-06T11:08:33;93794.28;;;21.56;76.93
63097;BME280;49185;42.320;23.198;2023-08-06T11:11:12;93802.28;;;21.40;76.36
63097;BME280;49185;42.320;23.198;2023-08-06T11:13:39;93797.00;;;21.32;77.00
63097;BME280;49185;42.320;23.198;2023-08-06T11:16:05;93794.19;;;21.53;74.56
63097;BME280;49185;42.320;23.198;2023-08-06T11:18:32;93788.53;;;21.98;73.03
63097;BME280;49185;42.320;23.198;2023-08-06T11:21:01;93788.88;;;22.37;70.48
63097;BME280;49185;42.320;23.198;2023-08-06T11:23:30;93793.91;;;22.67;67.00
63097;BME280;49185;42.320;23.198;2023-08-06T11:25:57;93793.91;;;22.67;67.21
63097;BME280;49185;42.320;23.198;2023-08-06T11:28:22;93796.06;;;23.06;68.66
63097;BME280;49185;42.320;23.198;2023-08-06T11:30:49;93795.31;;;24.51;61.59
63097;BME280;49185;42.320;23.198;2023-08-06T11:33:14;93780.16;;;25.69;58.51
63097;BME280;49185;42.320;23.198;2023-08-06T11:35:44;93780.72;;;26.42;55.44
63097;BME280;49185;42.320;23.198;2023-08-06T11:38:11;93786.25;;;27.28;55.72
63097;BME280;49185;42.320;23.198;2023-08-06T11:40:38;93782.94;;;26.63;56.99
63097;BME280;49185;42.320;23.198;2023-08-06T11:43:05;93785.13;;;27.33;52.63
63097;BME280;49185;42.320;23.198;2023-08-06T11:45:30;93780.94;;;28.05;53.16
63097;BME280;49185;42.320;23.198;2023-08-06T11:47:56;93786.72;;;27.93;54.68
63097;BME280;49185;42.320;23.198;2023-08-06T11:50:25;93786.41;;;28.09;48.44
63097;BME280;49185;42.320;23.198;2023-08-06T11:52:56;93775.22;;;28.50;50.92
63097;BME280;49185;42.320;23.198;2023-08-06T11:55:24;93766.75;;;29.02;46.18
63097;BME280;49185;42.320;23.198;2023-08-06T11:57:50;93764.06;;;29.41;45.91
63097;BME280;49185;42.320;23.198;2023-08-06T12:00:15;93760.91;;;29.39;47.12
63097;BME280;49185;42.320;23.198;2023-08-06T12:02:42;93761.72;;;29.18;46.27
63097;BME280;49185;42.320;23.198;2023-08-06T12:05:17;93759.63;;;30.08;44.39
63097;BME280;49185;42.320;23.198;2023-08-06T12:07:48;93763.97;;;29.99;43.67
63097;BME280;49185;42.320;23.198;2023-08-06T12:10:15;93745.63;;;30.70;44.94
63097;BME280;49185;42.320;23.198;2023-08-06T12:12:40;93758.50;;;29.88;44.71
63097;BME280;49185;42.320;23.198;2023-08-06T12:15:07;93766.34;;;29.03;47.20
63097;BME280;49185;42.320;23.198;2023-08-06T12:17:33;93750.28;;;27.78;47.80
63097;BME280;49185;42.320;23.198;2023-08-06T12:19:58;93749.88;;;27.17;50.81
63097;BME280;49185;42.320;23.198;2023-08-06T12:22:24;93747.53;;;28.55;48.53
63097;BME280;49185;42.320;23.198;2023-08-06T12:24:50;93738.97;;;29.00;43.58
63097;BME280;49185;42.320;23.198;2023-08-06T12:27:15;93744.69;;;28.26;46.12
63097;BME280;49185;42.320;23.198;2023-08-06T12:29:45;93749.25;;;27.34;48.70
63097;BME280;49185;42.320;23.198;2023-08-06T12:32:11;93736.00;;;26.88;48.66
63097;BME280;49185;42.320;23.198;2023-08-06T12:34:41;93728.81;;;27.17;45.48
63097;BME280;49185;42.320;23.198;2023-08-06T12:37:07;93728.16;;;27.31;47.04
63097;BME280;49185;42.320;23.198;2023-08-06T12:39:34;93724.66;;;27.34;49.77
63097;BME280;49185;42.320;23.198;2023-08-06T12:42:00;93717.41;;;27.60;49.55
63097;BME280;49185;42.320;23.198;2023-08-06T12:44:26;93715.50;;;27.68;49.12
63097;BME280;49185;42.320;23.198;2023-08-06T12:46:51;93718.16;;;27.57;49.44
63097;BME280;49185;42.320;23.198;2023-08-06T12:49:18;93729.94;;;27.13;48.21
63097;BME280;49185;42.320;23.198;2023-08-06T12:51:43;93749.94;;;26.08;48.46
63097;BME280;49185;42.320;23.198;2023-08-06T12:54:08;93735.69;;;26.22;49.68
63097;BME280;49185;42.320;23.198;2023-08-06T12:56:34;93734.16;;;27.03;48.04
63097;BME280;49185;42.320;23.198;2023-08-06T12:59:00;93716.22;;;27.05;48.21
63097;BME280;49185;42.320;23.198;2023-08-06T13:01:26;93716.91;;;27.40;47.57
63097;BME280;49185;42.320;23.198;2023-08-06T13:03:51;93716.13;;;27.39;46.12
63097;BME280;49185;42.320;23.198;2023-08-06T13:06:17;93715.69;;;27.37;44.79
63097;BME280;49185;42.320;23.198;2023-08-06T13:08:42;93713.06;;;27.52;45.69
63097;BME280;49185;42.320;23.198;2023-08-06T13:11:07;93717.25;;;27.35;43.87
63097;BME280;49185;42.320;23.198;2023-08-06T13:13:33;93711.44;;;27.43;45.02
63097;BME280;49185;42.320;23.198;2023-08-06T13:15:58;93721.03;;;27.23;45.82
63097;BME280;49185;42.320;23.198;2023-08-06T13:18:23;93733.38;;;27.02;47.90
63097;BME280;49185;42.320;23.198;2023-08-06T13:20:49;93732.28;;;26.66;47.66
63097;BME280;49185;42.320;23.198;2023-08-06T13:23:18;93721.66;;;26.61;47.12
63097;BME280;49185;42.320;23.198;2023-08-06T13:25:43;93735.31;;;26.61;47.12
63097;BME280;49185;42.320;23.198;2023-08-06T13:28:08;93735.97;;;26.50;49.22
63097;BME280;49185;42.320;23.198;2023-08-06T13:30:34;93736.50;;;26.60;45.91
63097;BME280;49185;42.320;23.198;2023-08-06T13:33:00;93737.50;;;26.44;48.57
63097;BME280;49185;42.320;23.198;2023-08-06T13:35:25;93739.91;;;26.53;48.43
63097;BME280;49185;42.320;23.198;2023-08-06T13:37:52;93735.31;;;26.61;47.60
63097;BME280;49185;42.320;23.198;2023-08-06T13:40:17;93735.94;;;26.47;47.79
63097;BME280;49185;42.320;23.198;2023-08-06T13:42:43;93740.19;;;26.41;49.63
63097;BME280;49185;42.320;23.198;2023-08-06T13:45:08;93749.72;;;26.24;48.61
63097;BME280;49185;42.320;23.198;2023-08-06T13:47:34;93748.13;;;25.89;49.77
63097;BME280;49185;42.320;23.198;2023-08-06T13:49:59;93745.88;;;25.64;53.20
63097;BME280;49185;42.320;23.198;2023-08-06T13:52:26;93745.31;;;25.82;50.50
63097;BME280;49185;42.320;23.198;2023-08-06T13:54:52;93727.91;;;26.24;51.76
63097;BME280;49185;42.320;23.198;2023-08-06T13:57:20;93737.09;;;26.42;51.70
63097;BME280;49185;42.320;23.198;2023-08-06T13:59:45;93740.41;;;26.25;51.00
63097;BME280;49185;42.320;23.198;2023-08-06T14:02:11;93739.50;;;26.13;49.74
63097;BME280;49185;42.320;23.198;2023-08-06T14:04:36;93731.22;;;26.06;50.41
63097;BME280;49185;42.320;23.198;2023-08-06T14:07:02;93733.66;;;26.15;50.86
63097;BME280;49185;42.320;23.198;2023-08-06T14:09:27;93735.84;;;26.36;53.61
63097;BME280;49185;42.320;23.198;2023-08-06T14:11:53;93748.91;;;26.20;51.00
63097;BME280;49185;42.320;23.198;2023-08-06T14:14:18;93748.09;;;26.16;53.04
63097;BME280;49185;42.320;23.198;2023-08-06T14:16:43;93742.28;;;26.17;52.74
63097;BME280;49185;42.320;23.198;2023-08-06T14:19:09;93747.69;;;26.13;50.86
63097;BME280;49185;42.320;23.198;2023-08-06T14:21:34;93748.09;;;26.16;51.46
63097;BME280;49185;42.320;23.198;2023-08-06T14:24:00;93745.28;;;26.08;53.70
63097;BME280;49185;42.320;23.198;2023-08-06T14:26:25;93750.84;;;25.89;51.99
63097;BME280;49185;42.320;23.198;2023-08-06T14:28:50;93741.50;;;25.60;52.86
63097;BME280;49185;42.320;23.198;2023-08-06T14:31:16;93745.19;;;25.74;53.65
63097;BME280;49185;42.320;23.198;2023-08-06T14:33:41;93749.41;;;25.95;49.62
63097;BME280;49185;42.320;23.198;2023-08-06T14:36:07;93749.66;;;26.17;49.42
63097;BME280;49185;42.320;23.198;2023-08-06T14:38:33;93744.28;;;26.24;49.92
63097;BME280;49185;42.320;23.198;2023-08-06T14:40:58;93743.25;;;26.36;50.19
63097;BME280;49185;42.320;23.198;2023-08-06T14:43:24;93743.09;;;26.21;50.48
63097;BME280;49185;42.320;23.198;2023-08-06T14:45:49;93753.47;;;26.08;50.30
63097;BME280;49185;42.320;23.198;2023-08-06T14:48:14;93757.09;;;26.20;49.85
63097;BME280;49185;42.320;23.198;2023-08-06T14:50:40;93755.44;;;26.11;49.87
63097;BME280;49185;42.320;23.198;2023-08-06T14:53:05;93743.78;;;25.54;51.45
63097;BME280;49185;42.320;23.198;2023-08-06T14:55:31;93751.00;;;25.19;52.19
63097;BME280;49185;42.320;23.198;2023-08-06T14:57:57;93755.75;;;24.99;51.82
63097;BME280;49185;42.320;23.198;2023-08-06T15:00:22;93754.31;;;25.06;53.29
63097;BME280;49185;42.320;23.198;2023-08-06T15:02:48;93762.44;;;25.25;51.17
63097;BME280;49185;42.320;23.198;2023-08-06T15:05:13;93763.78;;;25.38;51.82
63097;BME280;49185;42.320;23.198;2023-08-06T15:07:39;93760.59;;;25.10;53.14
63097;BME280;49185;42.320;23.198;2023-08-06T15:10:05;93758.25;;;24.85;53.44
63097;BME280;49185;42.320;23.198;2023-08-06T15:12:32;93753.69;;;24.70;53.87
63097;BME280;49185;42.320;23.198;2023-08-06T15:15:00;93752.88;;;24.66;53.85
63097;BME280;49185;42.320;23.198;2023-08-06T15:17:26;93756.19;;;24.55;55.18
63097;BME280;49185;42.320;23.198;2023-08-06T15:19:51;93750.44;;;24.41;53.63
63097;BME280;49185;42.320;23.198;2023-08-06T15:22:17;93749.91;;;24.32;55.64
63097;BME280;49185;42.320;23.198;2023-08-06T15:24:42;93751.69;;;24.24;53.99
63097;BME280;49185;42.320;23.198;2023-08-06T15:27:08;93751.31;;;24.25;53.61
63097;BME280;49185;42.320;23.198;2023-08-06T15:29:33;93752.63;;;24.32;54.50
63097;BME280;49185;42.320;23.198;2023-08-06T15:31:59;93760.56;;;24.40;54.62
63097;BME280;49185;42.320;23.198;2023-08-06T15:34:24;93756.44;;;24.70;53.59
63097;BME280;49185;42.320;23.198;2023-08-06T15:36:50;93760.06;;;24.77;52.53
63097;BME280;49185;42.320;23.198;2023-08-06T15:39:15;93753.41;;;24.75;52.67
63097;BME280;49185;42.320;23.198;2023-08-06T15:41:41;93746.06;;;24.56;54.00
63097;BME280;49185;42.320;23.198;2023-08-06T15:44:07;93748.44;;;24.38;56.02
63097;BME280;49185;42.320;23.198;2023-08-06T15:46:32;93748.13;;;24.20;56.91
63097;BME280;49185;42.320;23.198;2023-08-06T15:48:58;93750.28;;;24.11;56.95
63097;BME280;49185;42.320;23.198;2023-08-06T15:51:24;93752.91;;;24.07;57.33
63097;BME280;49185;42.320;23.198;2023-08-06T15:53:49;93758.34;;;24.07;56.83
63097;BME280;49185;42.320;23.198;2023-08-06T15:56:14;93762.00;;;24.15;55.80
63097;BME280;49185;42.320;23.198;2023-08-06T15:58:40;93763.56;;;24.16;56.17
63097;BME280;49185;42.320;23.198;2023-08-06T16:01:05;93769.72;;;24.13;55.26
63097;BME280;49185;42.320;23.198;2023-08-06T16:03:31;93780.53;;;24.09;55.69
63097;BME280;49185;42.320;23.198;2023-08-06T16:05:56;93779.25;;;24.03;57.70
63097;BME280;49185;42.320;23.198;2023-08-06T16:08:22;93781.09;;;23.99;56.36
63097;BME280;49185;42.320;23.198;2023-08-06T16:10:47;93798.13;;;23.96;56.19
63097;BME280;49185;42.320;23.198;2023-08-06T16:13:12;93797.66;;;23.94;55.16
63097;BME280;49185;42.320;23.198;2023-08-06T16:15:38;93801.53;;;23.93;54.15
63097;BME280;49185;42.320;23.198;2023-08-06T16:18:03;93802.66;;;23.92;54.10
63097;BME280;49185;42.320;23.198;2023-08-06T16:20:30;93800.22;;;23.86;54.39
63097;BME280;49185;42.320;23.198;2023-08-06T16:22:55;93795.97;;;23.85;53.97
63097;BME280;49185;42.320;23.198;2023-08-06T16:25:20;93801.97;;;23.95;52.71
63097;BME280;49185;42.320;23.198;2023-08-06T16:27:46;93811.25;;;23.94;53.32
63097;BME280;49185;42.320;23.198;2023-08-06T16:30:12;93814.25;;;23.88;54.51
63097;BME280;49185;42.320;23.198;2023-08-06T16:32:38;93817.97;;;23.80;56.49
63097;BME280;49185;42.320;23.198;2023-08-06T16:35:03;93817.69;;;23.69;57.40
63097;BME280;49185;42.320;23.198;2023-08-06T16:37:29;93818.25;;;23.59;56.82
63097;BME280;49185;42.320;23.198;2023-08-06T16:39:54;93833.13;;;23.49;57.27
63097;BME280;49185;42.320;23.198;2023-08-06T16:42:20;93825.28;;;23.44;57.78
63097;BME280;49185;42.320;23.198;2023-08-06T16:44:45;93824.41;;;23.40;57.10
63097;BME280;49185;42.320;23.198;2023-08-06T16:47:11;93825.88;;;23.54;56.48